Time;durP1;ratioP1;P1;durP2;ratioP2;P2;SDS_P1;SDS_P2;PMS_P1;PMS_P2;Temp;Humidity;BMP_temperature;BMP_pressure;BME280_temperature;BME280_humidity;BME280_pressure;Samples;Min_cycle;Max_cycle;Signal;HPM_P1;HPM_P2
2022/12/11 00:00:23;;;;;;;42.33;26.17;;;-2.30;87.60;;;;;;5034646;28;20025;-64
2022/12/11 00:02:49;;;;;;;31.95;19.90;;;-2.20;88.60;;;;;;5040022;28;20043;-62
2022/12/11 00:05:14;;;;;;;30.25;18.63;;;-2.30;89.00;;;;;;5037797;28;20496;-64
2022/12/11 00:07:40;;;;;;;30.83;18.55;;;-2.30;93.20;;;;;;5035888;28;20041;-64
2022/12/11 00:10:06;;;;;;;34.97;20.83;;;-2.40;94.90;;;;;;5038388;28;20033;-64
2022/12/11 00:12:35;;;;;;;32.65;20.13;;;-2.50;96.50;;;;;;5035522;28;20104;-63
2022/12/11 00:15:00;;;;;;;34.92;21.00;;;-2.70;95.60;;;;;;5038337;28;20040;-63
2022/12/11 00:17:26;;;;;;;37.72;22.45;;;-2.80;96.10;;;;;;5039517;28;20025;-63
2022/12/11 00:19:51;;;;;;;34.35;20.17;;;-3.00;95.50;;;;;;5051804;28;20156;-63
2022/12/11 00:22:17;;;;;;;35.20;22.10;;;-3.10;94.00;;;;;;5048306;28;20028;-64
2022/12/11 00:24:42;;;;;;;31.40;19.42;;;-3.30;95.30;;;;;;5077176;28;20025;-63
2022/12/11 00:27:08;;;;;;;34.63;20.80;;;-3.40;93.50;;;;;;5045685;28;20099;-63
2022/12/11 00:29:34;;;;;;;34.53;20.20;;;-3.40;93.50;;;;;;5053470;28;20054;-64
2022/12/11 00:31:59;;;;;;;35.28;22.08;;;-3.40;93.10;;;;;;5050386;28;20094;-64
2022/12/11 00:34:25;;;;;;;37.67;22.27;;;-3.20;92.30;;;;;;5038881;28;20079;-64
2022/12/11 00:36:50;;;;;;;47.10;26.50;;;-3.20;92.80;;;;;;5038051;28;20318;-64
2022/12/11 00:39:16;;;;;;;43.05;23.75;;;-3.30;94.00;;;;;;5040878;28;20444;-64
2022/12/11 00:41:42;;;;;;;40.47;24.17;;;-3.50;93.10;;;;;;5048570;28;20033;-63
2022/12/11 00:44:07;;;;;;;42.10;23.35;;;-3.50;91.70;;;;;;5048591;28;20059;-64
2022/12/11 00:46:33;;;;;;;35.05;22.23;;;-3.60;91.00;;;;;;5046027;28;20041;-63
2022/12/11 00:48:58;;;;;;;37.60;23.02;;;-3.70;90.90;;;;;;5046299;28;20029;-64
2022/12/11 00:51:24;;;;;;;37.50;22.30;;;-3.80;91.30;;;;;;5044078;28;20062;-63
2022/12/11 00:53:50;;;;;;;36.80;22.15;;;-4.00;90.70;;;;;;5047391;28;20037;-63
2022/12/11 00:56:19;;;;;;;37.33;22.77;;;-4.10;89.80;;;;;;5046347;28;20029;-63
2022/12/11 00:58:46;;;;;;;37.28;21.48;;;-4.20;89.50;;;;;;5039491;28;20021;-63
2022/12/11 01:01:15;;;;;;;42.72;24.23;;;-4.20;88.60;;;;;;5051671;28;20412;-66
2022/12/11 01:03:40;;;;;;;38.00;22.38;;;-4.20;88.10;;;;;;5055911;28;20025;-66
2022/12/11 01:06:07;;;;;;;39.10;22.00;;;-4.20;87.20;;;;;;5053798;28;20125;-64
2022/12/11 01:08:33;;;;;;;34.67;20.48;;;-4.20;87.80;;;;;;5051664;28;20037;-63
2022/12/11 01:11:04;;;;;;;44.60;23.58;;;-4.30;88.00;;;;;;5040704;28;20090;-64
2022/12/11 01:13:30;;;;;;;38.80;21.02;;;-4.40;87.00;;;;;;5043642;28;20030;-64
2022/12/11 01:15:55;;;;;;;43.20;22.92;;;-4.40;86.80;;;;;;5039446;28;20104;-62
2022/12/11 01:18:21;;;;;;;39.92;21.13;;;-4.50;88.40;;;;;;5044102;28;20028;-64
2022/12/11 01:20:47;;;;;;;44.10;23.00;;;-4.80;88.80;;;;;;5036360;28;20021;-64
2022/12/11 01:23:13;;;;;;;37.08;21.52;;;-5.00;88.10;;;;;;5043564;28;20033;-64
2022/12/11 01:25:40;;;;;;;40.63;22.10;;;-5.10;86.50;;;;;;5044239;28;20044;-63
2022/12/11 01:28:06;;;;;;;35.30;20.23;;;-5.10;86.20;;;;;;5040988;28;20032;-63
2022/12/11 01:30:32;;;;;;;38.67;20.83;;;-5.20;85.00;;;;;;5045198;28;20334;-63
2022/12/11 01:32:57;;;;;;;39.35;20.90;;;-5.10;84.70;;;;;;5049956;28;20037;-64
2022/12/11 01:35:23;;;;;;;37.60;21.25;;;-5.20;85.70;;;;;;5044035;28;20037;-63
2022/12/11 01:37:51;;;;;;;40.17;20.75;;;-5.30;85.40;;;;;;5050949;28;20444;-64
2022/12/11 01:40:22;;;;;;;45.40;24.23;;;-5.40;86.00;;;;;;5040114;28;20361;-64
2022/12/11 01:42:51;;;;;;;32.33;18.92;;;-5.50;86.10;;;;;;5043393;28;20083;-64
2022/12/11 01:45:37;;;;;;;34.20;19.52;;;-5.60;85.80;;;;;;5049557;28;20029;-64
2022/12/11 01:48:09;;;;;;;35.53;20.13;;;-5.80;85.40;;;;;;5053351;28;20033;-63
2022/12/11 01:50:47;;;;;;;35.60;19.75;;;-5.80;85.20;;;;;;5047674;28;20040;-64
2022/12/11 01:53:18;;;;;;;38.40;20.13;;;-5.90;84.70;;;;;;5050208;28;20029;-64
2022/12/11 01:55:46;;;;;;;36.70;20.45;;;-6.00;84.30;;;;;;5048748;28;20029;-63
2022/12/11 01:58:13;;;;;;;37.30;19.48;;;-5.90;83.30;;;;;;5043812;28;20071;-63
2022/12/11 02:00:39;;;;;;;43.05;21.60;;;-5.80;83.30;;;;;;5047214;28;20071;-64
2022/12/11 02:03:04;;;;;;;39.40;21.60;;;-5.80;83.10;;;;;;5035596;28;20065;-63
2022/12/11 02:05:30;;;;;;;36.92;20.45;;;-5.70;82.30;;;;;;5039909;28;20033;-63
2022/12/11 02:07:59;;;;;;;44.72;23.13;;;-5.60;82.10;;;;;;5047866;28;20056;-63
2022/12/11 02:10:40;;;;;;;41.28;21.73;;;-5.50;82.00;;;;;;5043643;28;20365;-63
2022/12/11 02:13:36;;;;;;;39.88;21.40;;;-5.30;81.30;;;;;;5034041;28;20408;-63
2022/12/11 02:16:13;;;;;;;41.08;22.30;;;-5.20;81.20;;;;;;5030084;28;20115;-64
2022/12/11 02:19:01;;;;;;;40.03;21.85;;;-5.00;81.20;;;;;;5042725;28;20033;-63
2022/12/11 02:21:50;;;;;;;39.47;20.80;;;-4.90;81.10;;;;;;5044151;28;20383;-64
2022/12/11 02:24:45;;;;;;;36.15;19.98;;;-4.70;81.10;;;;;;5034753;28;20033;-63
2022/12/11 02:27:45;;;;;;;42.63;20.77;;;-4.60;81.70;;;;;;5048261;28;20374;-64
2022/12/11 02:30:14;;;;;;;36.38;19.33;;;-4.50;82.80;;;;;;5021630;28;20394;-64
2022/12/11 02:32:57;;;;;;;37.15;20.05;;;-4.50;83.70;;;;;;5035472;28;20044;-64
2022/12/11 02:35:33;;;;;;;38.28;21.60;;;-4.50;84.20;;;;;;5035221;28;20056;-64
2022/12/11 02:38:11;;;;;;;33.50;19.42;;;-4.40;84.90;;;;;;5037411;28;20025;-64
2022/12/11 02:40:39;;;;;;;34.53;19.58;;;-4.30;85.20;;;;;;5077236;28;20495;-63
2022/12/11 02:43:08;;;;;;;33.40;19.60;;;-4.30;85.50;;;;;;5039291;28;20044;-64
2022/12/11 02:45:37;;;;;;;34.00;19.17;;;-4.30;86.10;;;;;;5050309;28;20048;-64
2022/12/11 02:48:05;;;;;;;33.20;18.58;;;-4.30;85.90;;;;;;5054444;28;20032;-64
2022/12/11 02:50:34;;;;;;;36.10;20.15;;;-4.30;86.20;;;;;;5049583;28;20437;-64
2022/12/11 02:53:03;;;;;;;32.58;18.83;;;-4.30;86.70;;;;;;5048544;28;20108;-64
2022/12/11 02:55:34;;;;;;;30.77;18.58;;;-4.30;87.00;;;;;;5043819;28;20115;-64
2022/12/11 02:58:08;;;;;;;33.45;17.58;;;-4.40;88.60;;;;;;5046409;28;20041;-64
2022/12/11 03:00:35;;;;;;;26.73;16.55;;;-4.50;89.40;;;;;;5047956;28;20410;-64
2022/12/11 03:03:01;;;;;;;28.40;17.17;;;-4.60;89.60;;;;;;5034404;28;20033;-63
2022/12/11 03:05:30;;;;;;;30.77;17.75;;;-4.70;90.00;;;;;;5034802;28;20183;-64
2022/12/11 03:07:56;;;;;;;29.75;17.00;;;-4.80;89.80;;;;;;5038120;28;20025;-63
2022/12/11 03:10:21;;;;;;;26.38;15.80;;;-4.90;90.10;;;;;;5044772;28;20029;-64
2022/12/11 03:12:54;;;;;;;28.23;16.48;;;-5.10;91.30;;;;;;5050023;28;20072;-64
2022/12/11 03:15:22;;;;;;;28.15;15.68;;;-5.30;91.20;;;;;;5043916;28;20445;-64
2022/12/11 03:18:00;;;;;;;25.70;15.55;;;-5.50;91.80;;;;;;5046562;28;20313;-63
2022/12/11 03:20:57;;;;;;;33.30;18.10;;;-5.40;88.70;;;;;;5045017;28;20025;-64
2022/12/11 03:23:38;;;;;;;30.05;17.00;;;-5.40;90.30;;;;;;5040089;28;20073;-64
2022/12/11 03:26:09;;;;;;;35.00;19.40;;;-5.50;89.60;;;;;;5042184;28;20033;-63
2022/12/11 03:28:49;;;;;;;32.58;18.10;;;-5.40;88.60;;;;;;5043355;28;20424;-64
2022/12/11 03:31:44;;;;;;;30.75;17.70;;;-5.30;87.40;;;;;;5043599;28;20021;-64
2022/12/11 03:34:17;;;;;;;35.95;20.33;;;-5.10;86.10;;;;;;5033058;28;20048;-64
2022/12/11 03:36:45;;;;;;;35.30;20.40;;;-4.90;85.60;;;;;;5033254;28;20056;-64
2022/12/11 03:39:23;;;;;;;37.70;20.48;;;-4.70;84.20;;;;;;5039395;28;20033;-63
2022/12/11 03:41:50;;;;;;;31.25;19.10;;;-4.60;84.50;;;;;;5047358;28;20053;-64
2022/12/11 03:44:17;;;;;;;46.47;24.85;;;-4.50;84.80;;;;;;5049961;28;20032;-63
2022/12/11 03:46:45;;;;;;;45.53;24.55;;;-4.40;84.40;;;;;;5039275;28;20030;-64
2022/12/11 03:49:23;;;;;;;41.80;23.20;;;-4.30;84.70;;;;;;5034039;28;20018;-63
2022/12/11 03:51:54;;;;;;;48.85;27.05;;;-4.10;84.20;;;;;;5050021;28;20029;-63
2022/12/11 03:54:20;;;;;;;75.60;38.22;;;-4.10;85.10;;;;;;5046464;28;20025;-63
2022/12/11 03:56:49;;;;;;;42.28;24.42;;;-3.90;83.70;;;;;;5040223;28;20034;-65
2022/12/11 03:59:15;;;;;;;56.88;29.75;;;-3.80;86.40;;;;;;5047863;28;20036;-65
2022/12/11 04:01:41;;;;;;;49.75;27.38;;;-4.10;89.80;;;;;;5039663;28;20021;-66
2022/12/11 04:04:06;;;;;;;44.03;24.98;;;-4.40;89.90;;;;;;5038561;28;20033;-64
2022/12/11 04:06:32;;;;;;;37.33;23.35;;;-4.50;90.60;;;;;;5044077;28;20108;-64
2022/12/11 04:08:57;;;;;;;39.60;23.92;;;-4.60;89.20;;;;;;5037585;28;20287;-64
2022/12/11 04:11:35;;;;;;;42.22;23.95;;;-4.60;89.40;;;;;;5039765;28;20391;-64
2022/12/11 04:16:50;;;;;;;42.67;24.83;;;-4.70;90.90;;;;;;5048134;28;20090;-64
2022/12/11 04:24:47;;;;;;;48.78;28.02;;;-5.40;92.10;;;;;;5040525;28;20368;-64
2022/12/11 04:27:13;;;;;;;58.65;33.05;;;-5.60;90.50;;;;;;5033686;28;20112;-64
2022/12/11 04:29:39;;;;;;;54.03;30.70;;;-5.60;90.60;;;;;;5034381;28;20112;-64
2022/12/11 04:32:04;;;;;;;51.42;28.25;;;-5.70;89.70;;;;;;5041953;28;20025;-64
2022/12/11 04:34:30;;;;;;;48.15;27.08;;;-5.80;88.80;;;;;;5035871;28;20024;-64
2022/12/11 04:36:58;;;;;;;45.30;25.92;;;-5.90;88.60;;;;;;5043826;28;20025;-64
2022/12/11 04:39:24;;;;;;;41.80;23.40;;;-5.90;87.20;;;;;;5046168;28;20025;-64
2022/12/11 04:41:50;;;;;;;47.33;25.77;;;-5.90;86.20;;;;;;5051392;28;20039;-63
2022/12/11 04:44:15;;;;;;;42.53;22.42;;;-5.80;86.10;;;;;;5039000;28;20069;-64
2022/12/11 04:46:41;;;;;;;40.20;22.73;;;-5.90;87.20;;;;;;5045168;28;20078;-63
2022/12/11 04:49:06;;;;;;;46.45;24.65;;;-6.10;87.30;;;;;;5039456;28;20033;-63
2022/12/11 04:51:35;;;;;;;38.35;22.30;;;-6.20;88.00;;;;;;5046432;28;20136;-63
2022/12/11 04:54:00;;;;;;;42.05;22.75;;;-6.20;86.20;;;;;;5046298;28;20037;-64
2022/12/11 04:56:26;;;;;;;37.45;21.80;;;-6.10;86.90;;;;;;5045712;28;20039;-64
2022/12/11 04:58:52;;;;;;;37.97;22.00;;;-6.20;88.50;;;;;;5039661;28;20025;-64
2022/12/11 05:01:19;;;;;;;42.10;22.52;;;-6.10;86.00;;;;;;5035863;28;20029;-64
2022/12/11 05:03:45;;;;;;;43.63;22.58;;;-5.90;85.00;;;;;;5040953;28;20109;-64
2022/12/11 05:06:12;;;;;;;39.55;20.67;;;-5.80;85.30;;;;;;5053878;28;20422;-66
2022/12/11 05:08:40;;;;;;;46.97;24.08;;;-5.70;84.10;;;;;;5037939;28;20025;-64
2022/12/11 05:11:08;;;;;;;47.95;23.50;;;-5.50;85.30;;;;;;5039187;28;20021;-64
2022/12/11 05:13:34;;;;;;;43.30;23.55;;;-5.70;87.40;;;;;;5034890;28;20102;-64
2022/12/11 05:16:03;;;;;;;41.97;21.45;;;-5.80;88.10;;;;;;5045357;28;20033;-64
2022/12/11 05:18:29;;;;;;;36.70;19.63;;;-5.80;87.20;;;;;;5035211;28;20025;-64
2022/12/11 05:20:59;;;;;;;42.30;20.88;;;-5.80;86.50;;;;;;5039385;28;20029;-64
2022/12/11 05:23:26;;;;;;;46.70;22.27;;;-5.80;87.50;;;;;;5041608;28;20064;-63
2022/12/11 05:25:58;;;;;;;39.90;21.13;;;-5.90;88.30;;;;;;5041176;28;20033;-64
2022/12/11 05:28:26;;;;;;;42.00;21.73;;;-6.00;87.90;;;;;;5035084;28;20068;-64
2022/12/11 05:30:57;;;;;;;31.05;17.63;;;-6.00;88.70;;;;;;5040670;28;20018;-64
2022/12/11 05:33:23;;;;;;;36.53;19.40;;;-6.10;88.60;;;;;;5039741;28;20024;-64
2022/12/11 05:35:48;;;;;;;32.47;17.92;;;-6.10;89.00;;;;;;5035770;28;20021;-64
2022/12/11 05:38:14;;;;;;;42.83;21.27;;;-6.00;87.50;;;;;;5036469;28;20494;-63
2022/12/11 05:40:40;;;;;;;37.15;19.17;;;-6.00;89.30;;;;;;5043208;28;20040;-64
2022/12/11 05:43:06;;;;;;;40.67;20.50;;;-6.00;88.10;;;;;;5034965;28;20140;-64
2022/12/11 05:45:32;;;;;;;41.47;19.92;;;-5.90;86.40;;;;;;5039409;28;20051;-64
2022/12/11 05:47:57;;;;;;;41.63;21.38;;;-5.70;85.80;;;;;;5043509;28;20072;-64
2022/12/11 05:50:23;;;;;;;41.75;21.40;;;-5.50;85.60;;;;;;5038823;28;20314;-64
2022/12/11 05:52:48;;;;;;;35.65;18.67;;;-5.50;87.10;;;;;;5039061;28;20073;-64
2022/12/11 05:55:14;;;;;;;37.70;19.35;;;-5.50;86.40;;;;;;5038293;28;20040;-63
2022/12/11 05:57:39;;;;;;;34.60;18.00;;;-5.40;87.60;;;;;;5036590;28;20032;-64
2022/12/11 06:00:06;;;;;;;37.00;19.02;;;-5.30;87.50;;;;;;5043731;28;20033;-64
2022/12/11 06:02:34;;;;;;;44.00;21.92;;;-5.10;87.40;;;;;;5033703;28;20025;-64
2022/12/11 06:05:00;;;;;;;39.60;19.95;;;-5.10;88.20;;;;;;5036225;28;20500;-64
2022/12/11 06:07:26;;;;;;;33.08;18.73;;;-5.10;88.60;;;;;;5044107;28;20025;-64
2022/12/11 06:09:54;;;;;;;34.92;19.65;;;-5.10;88.40;;;;;;5043326;28;20049;-64
2022/12/11 06:12:19;;;;;;;36.80;19.20;;;-5.00;87.90;;;;;;5038388;28;20017;-64
2022/12/11 06:14:45;;;;;;;35.03;18.75;;;-5.00;88.20;;;;;;5034360;28;20025;-64
2022/12/11 06:17:13;;;;;;;35.88;19.90;;;-5.10;89.40;;;;;;5035298;28;20025;-64
2022/12/11 06:19:39;;;;;;;39.58;19.35;;;-5.00;89.00;;;;;;5036380;28;20037;-64
2022/12/11 06:22:05;;;;;;;28.60;15.95;;;-5.10;90.10;;;;;;5039818;28;20026;-64
2022/12/11 06:24:30;;;;;;;27.27;16.08;;;-5.10;88.20;;;;;;5040896;28;20023;-64
2022/12/11 06:26:56;;;;;;;28.63;16.38;;;-5.10;89.30;;;;;;5040125;28;20036;-64
2022/12/11 06:29:21;;;;;;;34.25;18.83;;;-5.20;90.20;;;;;;5034514;28;20152;-64
2022/12/11 06:31:47;;;;;;;32.55;17.65;;;-5.30;90.60;;;;;;5041996;28;20025;-64
2022/12/11 06:34:13;;;;;;;29.27;16.35;;;-5.50;91.60;;;;;;5038026;28;20531;-64
2022/12/11 06:36:39;;;;;;;32.70;18.20;;;-5.60;91.80;;;;;;5042378;28;20120;-65
2022/12/11 06:39:05;;;;;;;28.83;16.80;;;-5.70;92.10;;;;;;5037709;28;20325;-63
2022/12/11 06:41:30;;;;;;;30.25;16.98;;;-5.80;91.00;;;;;;5043114;28;20033;-64
2022/12/11 06:43:56;;;;;;;33.58;17.23;;;-5.80;91.00;;;;;;5036191;28;20037;-63
2022/12/11 06:46:21;;;;;;;30.85;16.77;;;-5.90;91.50;;;;;;5039030;28;20112;-63
2022/12/11 06:48:48;;;;;;;32.53;17.20;;;-5.90;90.50;;;;;;5036860;28;20411;-63
2022/12/11 06:51:17;;;;;;;31.77;16.50;;;-5.90;89.70;;;;;;5036981;28;20025;-65
2022/12/11 06:53:43;;;;;;;46.78;23.05;;;-5.90;89.40;;;;;;5037610;28;20021;-65
2022/12/11 06:56:11;;;;;;;39.70;20.60;;;-5.90;89.70;;;;;;5032679;28;20434;-65
2022/12/11 06:58:38;;;;;;;105.32;41.75;;;-6.00;90.30;;;;;;5045233;28;20325;-64
2022/12/11 07:01:12;;;;;;;133.18;51.42;;;-6.00;89.50;;;;;;5041111;28;20033;-64
2022/12/11 07:03:38;;;;;;;86.75;41.45;;;-6.00;89.40;;;;;;5037496;28;20051;-64
2022/12/11 07:06:06;;;;;;;35.90;18.05;;;-6.00;90.60;;;;;;5038786;28;20020;-65
2022/12/11 07:08:32;;;;;;;32.28;17.58;;;-6.30;94.00;;;;;;5069285;28;20029;-64
2022/12/11 07:11:05;;;;;;;44.20;19.45;;;-6.50;93.30;;;;;;5066539;28;20028;-65
2022/12/11 07:13:32;;;;;;;33.03;17.88;;;-6.60;93.30;;;;;;5046392;28;20108;-65
2022/12/11 07:15:59;;;;;;;36.55;18.00;;;-6.60;92.00;;;;;;5050250;28;20032;-65
2022/12/11 07:18:25;;;;;;;34.92;17.15;;;-6.70;92.20;;;;;;5051790;28;20028;-65
2022/12/11 07:20:51;;;;;;;31.83;17.42;;;-6.70;90.80;;;;;;5052207;28;20020;-65
2022/12/11 07:23:16;;;;;;;32.55;17.95;;;-6.60;90.50;;;;;;5049928;28;20052;-65
2022/12/11 07:25:42;;;;;;;37.78;17.65;;;-6.60;90.40;;;;;;5052375;28;20139;-64
2022/12/11 07:28:07;;;;;;;35.20;17.27;;;-6.50;90.80;;;;;;5044669;28;20128;-65
2022/12/11 07:30:33;;;;;;;31.92;15.93;;;-6.40;90.30;;;;;;5034347;28;20022;-65
2022/12/11 07:32:58;;;;;;;32.33;17.30;;;-6.30;90.50;;;;;;5049380;28;20048;-64
2022/12/11 07:35:25;;;;;;;34.85;17.00;;;-6.30;91.40;;;;;;5051527;28;20056;-64
2022/12/11 07:37:58;;;;;;;29.38;15.50;;;-6.50;94.00;;;;;;5050829;28;20052;-64
2022/12/11 07:40:24;;;;;;;37.75;18.88;;;-6.50;91.80;;;;;;5047139;28;20029;-64
2022/12/11 07:42:49;;;;;;;32.15;15.77;;;-6.30;90.80;;;;;;5035782;28;20432;-64
2022/12/11 07:45:15;;;;;;;31.55;17.20;;;-6.30;93.30;;;;;;5043441;28;20104;-64
2022/12/11 07:47:40;;;;;;;32.78;19.42;;;-6.40;91.90;;;;;;5047879;28;20031;-64
2022/12/11 07:50:06;;;;;;;33.45;19.52;;;-6.30;91.60;;;;;;5042042;28;20360;-64
2022/12/11 07:52:32;;;;;;;29.98;15.90;;;-6.30;93.40;;;;;;5043293;28;20103;-65
2022/12/11 07:54:58;;;;;;;32.47;17.77;;;-6.50;92.80;;;;;;5045240;28;20025;-64
2022/12/11 07:57:23;;;;;;;27.10;14.35;;;-6.50;92.90;;;;;;5033795;28;20051;-65
2022/12/11 07:59:49;;;;;;;31.38;15.68;;;-6.40;91.90;;;;;;5044689;28;20032;-64
2022/12/11 08:02:15;;;;;;;27.92;15.02;;;-6.30;93.10;;;;;;5042111;28;20029;-65
2022/12/11 08:04:40;;;;;;;30.60;16.63;;;-6.30;92.50;;;;;;5028783;28;20072;-65
2022/12/11 08:07:06;;;;;;;28.08;16.92;;;-6.20;93.30;;;;;;5027176;28;21686;-64
2022/12/11 08:09:32;;;;;;;31.45;16.55;;;-6.20;92.10;;;;;;5028194;28;20025;-64
2022/12/11 08:11:57;;;;;;;29.05;15.68;;;-6.10;91.80;;;;;;5036122;28;20031;-64
2022/12/11 08:14:23;;;;;;;32.40;15.07;;;-6.00;93.40;;;;;;5027434;28;20122;-64
2022/12/11 08:16:48;;;;;;;26.98;14.65;;;-6.10;94.60;;;;;;5034305;28;20123;-64
2022/12/11 08:19:14;;;;;;;56.03;29.02;;;-6.00;94.20;;;;;;5045409;28;20033;-64
2022/12/11 08:21:40;;;;;;;29.90;16.73;;;-5.80;92.30;;;;;;5052673;28;20079;-64
2022/12/11 08:24:07;;;;;;;28.27;13.50;;;-5.70;92.50;;;;;;5050968;28;20091;-64
2022/12/11 08:26:32;;;;;;;23.52;12.68;;;-5.30;92.00;;;;;;5042789;28;20037;-64
2022/12/11 08:28:59;;;;;;;23.25;12.95;;;-5.10;94.10;;;;;;5033937;28;20487;-64
2022/12/11 08:31:25;;;;;;;23.33;12.88;;;-4.70;91.10;;;;;;5032902;28;20112;-64
2022/12/11 08:33:53;;;;;;;20.40;11.82;;;-3.90;92.40;;;;;;5041299;28;20074;-64
2022/12/11 08:36:20;;;;;;;23.30;12.15;;;-3.80;98.00;;;;;;5040816;28;20037;-64
2022/12/11 08:38:46;;;;;;;19.85;12.40;;;-3.70;98.00;;;;;;5043268;28;20025;-64
2022/12/11 08:41:20;;;;;;;19.27;11.43;;;-2.90;98.00;;;;;;5047174;28;20029;-64
2022/12/11 08:43:47;;;;;;;17.23;9.55;;;-1.70;98.00;;;;;;5046229;28;20041;-63
2022/12/11 08:46:16;;;;;;;14.82;9.32;;;-0.90;98.00;;;;;;5054195;28;20029;-64
2022/12/11 08:48:42;;;;;;;22.23;12.55;;;-0.60;98.00;;;;;;5050237;28;20037;-65
2022/12/11 08:51:12;;;;;;;110.53;57.33;;;-0.70;98.00;;;;;;5050179;28;20028;-65
2022/12/11 08:53:38;;;;;;;25.35;15.65;;;0.10;98.00;;;;;;5050711;28;20029;-65
2022/12/11 08:56:07;;;;;;;45.05;30.33;;;0.50;97.00;;;;;;5039525;28;20035;-66
2022/12/11 08:58:33;;;;;;;19.15;14.07;;;0.60;96.20;;;;;;5055932;28;20150;-65
2022/12/11 09:00:59;;;;;;;14.05;8.13;;;1.10;95.80;;;;;;5050776;28;20104;-65
2022/12/11 09:03:24;;;;;;;14.43;8.65;;;1.10;93.00;;;;;;5041013;28;20065;-65
2022/12/11 09:05:50;;;;;;;15.38;8.75;;;1.50;93.50;;;;;;5047593;28;20292;-65
2022/12/11 09:08:16;;;;;;;16.75;10.25;;;2.00;91.50;;;;;;5056583;28;20025;-65
2022/12/11 09:10:42;;;;;;;22.15;12.38;;;2.90;89.70;;;;;;5047088;28;20123;-65
2022/12/11 09:13:08;;;;;;;16.52;9.45;;;3.10;87.60;;;;;;5057556;28;20665;-65
2022/12/11 09:15:34;;;;;;;20.45;12.48;;;4.00;83.80;;;;;;5056356;28;20040;-65
2022/12/11 09:18:00;;;;;;;23.30;18.25;;;5.00;81.70;;;;;;5059714;28;20409;-65
2022/12/11 09:20:26;;;;;;;17.67;12.32;;;5.20;79.50;;;;;;5066257;28;20052;-65
2022/12/11 09:22:51;;;;;;;16.85;12.18;;;5.70;79.00;;;;;;5058100;28;20035;-64
2022/12/11 09:25:17;;;;;;;12.00;7.85;;;5.90;78.30;;;;;;5045561;28;20354;-64
2022/12/11 09:27:42;;;;;;;12.02;7.47;;;6.20;77.50;;;;;;5061975;28;20071;-64
2022/12/11 09:30:08;;;;;;;12.63;7.80;;;6.00;78.10;;;;;;5059084;28;20037;-64
2022/12/11 09:32:34;;;;;;;13.75;8.88;;;5.60;76.90;;;;;;5051209;28;20116;-64
2022/12/11 09:34:59;;;;;;;12.05;7.72;;;5.10;79.20;;;;;;5050310;28;20311;-63
2022/12/11 09:37:27;;;;;;;12.18;7.25;;;4.70;77.10;;;;;;5062967;28;20031;-62
2022/12/11 09:39:53;;;;;;;13.38;7.45;;;4.70;79.00;;;;;;5038283;28;20112;-64
2022/12/11 09:42:47;;;;;;;20.33;10.80;;;5.50;77.90;;;;;;5046769;28;20120;-64
2022/12/11 09:45:15;;;;;;;11.98;7.63;;;5.60;76.40;;;;;;5048589;28;20025;-64
2022/12/11 09:47:54;;;;;;;15.52;9.45;;;5.10;76.70;;;;;;5046607;28;20030;-66
2022/12/11 09:50:30;;;;;;;15.38;8.98;;;4.60;78.90;;;;;;5057319;28;20107;-65
2022/12/11 09:53:17;;;;;;;12.63;7.80;;;5.00;79.20;;;;;;5047999;28;20152;-64
2022/12/11 09:56:05;;;;;;;14.05;7.55;;;5.30;78.70;;;;;;5049796;28;20033;-65
2022/12/11 09:59:19;;;;;;;17.50;10.40;;;5.20;77.80;;;;;;5047203;28;20298;-65
2022/12/11 10:02:10;;;;;;;17.35;10.80;;;4.10;78.50;;;;;;5052557;28;20045;-64
2022/12/11 10:05:00;;;;;;;18.95;10.82;;;2.70;81.90;;;;;;5057640;28;20028;-64
2022/12/11 10:07:54;;;;;;;21.88;13.60;;;1.50;84.70;;;;;;5057978;28;20025;-64
2022/12/11 10:10:25;;;;;;;23.95;13.68;;;0.70;87.70;;;;;;5042876;28;20049;-64
2022/12/11 10:13:11;;;;;;;18.75;12.15;;;0.30;90.10;;;;;;5045926;28;20112;-64
2022/12/11 10:15:40;;;;;;;24.98;14.18;;;0.20;90.90;;;;;;5046539;28;20472;-63
2022/12/11 10:18:17;;;;;;;17.88;11.73;;;0.20;91.30;;;;;;5053246;28;20045;-63
2022/12/11 10:20:51;;;;;;;19.35;11.15;;;0.10;91.60;;;;;;5046957;28;20025;-64
2022/12/11 10:24:00;;;;;;;18.00;10.68;;;0.10;92.10;;;;;;5046736;28;20028;-64
2022/12/11 10:26:39;;;;;;;17.45;9.52;;;0.20;91.50;;;;;;5047090;28;20437;-63
2022/12/11 10:29:12;;;;;;;14.95;8.88;;;0.50;90.90;;;;;;5070255;28;20037;-64
2022/12/11 10:31:54;;;;;;;15.50;9.05;;;0.70;90.80;;;;;;5050170;28;20021;-63
2022/12/11 10:34:29;;;;;;;14.25;8.20;;;0.70;89.60;;;;;;5055642;28;20103;-63
2022/12/11 10:36:54;;;;;;;23.67;13.27;;;0.80;89.10;;;;;;5061546;28;20028;-64
2022/12/11 10:39:21;;;;;;;26.00;14.68;;;0.90;89.70;;;;;;5047780;28;20029;-64
2022/12/11 10:41:50;;;;;;;20.83;13.30;;;0.90;89.90;;;;;;5056274;28;20035;-64
2022/12/11 10:44:22;;;;;;;18.05;10.43;;;0.70;90.20;;;;;;5056683;28;20466;-64
2022/12/11 10:47:01;;;;;;;25.05;14.15;;;0.80;91.00;;;;;;5054123;28;20099;-64
2022/12/11 10:49:29;;;;;;;22.45;13.15;;;0.70;90.80;;;;;;5064586;28;20425;-64
2022/12/11 10:52:00;;;;;;;18.50;11.60;;;0.60;91.30;;;;;;5050321;28;20029;-63
2022/12/11 10:54:32;;;;;;;18.33;10.50;;;0.40;92.20;;;;;;5050393;28;20379;-63
2022/12/11 10:57:00;;;;;;;20.70;11.40;;;0.40;92.10;;;;;;5047601;28;20021;-63
2022/12/11 10:59:48;;;;;;;21.38;11.32;;;0.30;92.50;;;;;;5045672;28;20029;-63
2022/12/11 11:02:35;;;;;;;20.98;11.15;;;0.20;93.10;;;;;;5056022;28;20029;-63
2022/12/11 11:05:14;;;;;;;20.67;12.50;;;0.10;94.30;;;;;;5051812;28;20736;-63
2022/12/11 11:07:40;;;;;;;20.58;12.18;;;0.20;94.80;;;;;;5052487;28;20108;-64
2022/12/11 11:10:09;;;;;;;18.13;10.68;;;0.20;94.10;;;;;;5063853;28;20112;-63
2022/12/11 11:12:47;;;;;;;20.92;12.88;;;0.30;94.40;;;;;;5052579;28;20025;-63
2022/12/11 11:15:25;;;;;;;25.48;15.93;;;0.50;94.60;;;;;;5049742;28;20025;-63
2022/12/11 11:17:56;;;;;;;22.13;13.50;;;0.70;95.30;;;;;;5050666;28;20028;-64
2022/12/11 11:20:28;;;;;;;19.60;10.88;;;0.80;95.30;;;;;;5058711;28;20403;-63
2022/12/11 11:23:12;;;;;;;83.35;41.42;;;0.60;95.20;;;;;;5050687;28;20112;-64
2022/12/11 11:25:39;;;;;;;18.27;11.50;;;0.50;95.90;;;;;;5053973;28;20079;-64
2022/12/11 11:28:18;;;;;;;19.73;12.70;;;0.50;96.10;;;;;;5054135;28;20093;-64
2022/12/11 11:30:56;;;;;;;16.35;9.95;;;0.40;95.80;;;;;;5054473;28;20025;-63
2022/12/11 11:33:23;;;;;;;13.45;8.68;;;0.30;96.30;;;;;;5061500;28;20035;-65
2022/12/11 11:36:01;;;;;;;9.27;5.38;;;0.30;95.50;;;;;;5054449;28;20302;-62
2022/12/11 11:38:38;;;;;;;9.07;4.43;;;0.20;94.50;;;;;;5037296;28;20025;-63
2022/12/11 11:41:12;;;;;;;14.88;7.55;;;0.00;94.40;;;;;;5045666;28;20032;-64
2022/12/11 11:43:55;;;;;;;10.30;5.55;;;0.00;95.00;;;;;;5059083;28;20029;-63
2022/12/11 11:46:25;;;;;;;12.30;5.70;;;-0.10;96.30;;;;;;5055511;28;20123;-64
2022/12/11 11:49:16;;;;;;;9.95;5.93;;;-0.10;96.40;;;;;;5042827;28;20025;-63
2022/12/11 11:51:51;;;;;;;12.52;8.20;;;-0.30;97.00;;;;;;5039161;28;20040;-63
2022/12/11 11:54:33;;;;;;;12.32;6.28;;;-0.40;97.90;;;;;;5053889;28;20082;-63
2022/12/11 11:57:05;;;;;;;10.00;5.32;;;-0.40;98.00;;;;;;5054035;28;20496;-64
2022/12/11 11:59:35;;;;;;;12.23;6.70;;;-0.40;98.00;;;;;;5052227;28;20039;-63
2022/12/11 12:02:14;;;;;;;12.43;7.50;;;-0.20;98.00;;;;;;5051502;28;20029;-64
2022/12/11 12:04:40;;;;;;;13.68;8.07;;;0.10;98.00;;;;;;5047081;28;20104;-64
2022/12/11 12:07:17;;;;;;;14.18;7.80;;;0.40;98.00;;;;;;5052903;28;20027;-64
2022/12/11 12:10:11;;;;;;;12.82;6.45;;;0.70;98.00;;;;;;5057635;28;20032;-64
2022/12/11 12:12:50;;;;;;;9.88;5.00;;;0.60;96.90;;;;;;5041541;28;20034;-64
2022/12/11 12:15:50;;;;;;;8.77;4.35;;;0.60;96.70;;;;;;5067328;28;20378;-64
2022/12/11 12:18:55;;;;;;;9.02;4.13;;;0.70;96.60;;;;;;5049455;28;20029;-63
2022/12/11 12:21:36;;;;;;;7.07;3.50;;;0.70;96.00;;;;;;5051651;28;20433;-64
2022/12/11 12:24:20;;;;;;;6.18;3.60;;;0.60;96.70;;;;;;5047469;28;20036;-64
2022/12/11 12:26:54;;;;;;;8.20;4.70;;;1.00;96.50;;;;;;5054779;28;20148;-64
2022/12/11 12:29:32;;;;;;;9.35;4.97;;;1.80;96.40;;;;;;5054843;28;20440;-64
2022/12/11 12:32:19;;;;;;;3.85;2.05;;;3.30;92.00;;;;;;5039812;28;20355;-64
2022/12/11 12:35:11;;;;;;;5.70;2.50;;;4.20;86.00;;;;;;5055509;28;20096;-64
2022/12/11 12:38:07;;;;;;;9.43;4.47;;;4.80;82.90;;;;;;5054304;28;20025;-64
2022/12/11 12:40:55;;;;;;;5.75;2.35;;;4.80;84.80;;;;;;5053304;28;20068;-64
2022/12/11 12:43:45;;;;;;;6.88;4.25;;;5.00;83.80;;;;;;5054166;28;20041;-63
2022/12/11 12:46:49;;;;;;;8.75;4.90;;;4.90;83.40;;;;;;5046572;28;20555;-63
2022/12/11 12:49:49;;;;;;;5.30;2.45;;;4.50;83.90;;;;;;5056360;28;20033;-63
2022/12/11 12:52:37;;;;;;;8.38;3.17;;;3.90;83.10;;;;;;5053389;28;20045;-66
2022/12/11 12:55:21;;;;;;;6.57;2.58;;;3.50;84.40;;;;;;5051792;28;20075;-65
2022/12/11 12:57:57;;;;;;;6.07;2.25;;;3.40;85.00;;;;;;5057026;28;20029;-63
2022/12/11 13:00:30;;;;;;;6.50;3.22;;;3.60;84.50;;;;;;5051883;28;20044;-66